Nearby METAR Reports

 

KOKB - Oceanside, California, USA
Distance from station: W 1mi, 2km
Updated: Sun, 23-Jun-2024 4:52pm PDT
Clear
Clear
 Wind from W
Wind: W 12 mph , 19 km/h
Temperature: 79°F , 26°C
Dew Point: 61°F , 16°C
Humidity: 54%
Barometer: 29.86 inHg , 1011.2 hPa
Clouds: Clear
Visibility: 7 miles , 11 km
2024/06/23 23:52 KOKB 232352Z AUTO 26010KT 7SM CLR 26/16 A2986 RMK AO2 SLP110 T02560156 10294 20256 55007
KNFG - Camp Pendleton, California, USA
Distance from station: N 5mi, 8km
Updated: Sun, 23-Jun-2024 4:55pm PDT
Clear
Clear
 Wind from SW
Wind: SW 9 mph , 15 km/h, Gust: 20 mph , 31 km/h
Temperature: 81°F , 27°C
Heat Index: 82°F , 28°C
Dew Point: 61°F , 16°C
Humidity: 51%
Barometer: 29.86 inHg , 1011.2 hPa
Clouds: Clear
Visibility: 10 miles , 16 km
2024/06/23 23:55 KNFG 232355Z AUTO 23008G17KT 10SM CLR 27/16 A2986 RMK AO2 SLPNO T02720156 10317 20272 55006 $
 
KCRQ - Carlsbad, California, USA
Distance from station: SSE 6mi, 10km
Updated: Sun, 23-Jun-2024 4:53pm PDT
Clear
Clear
 Wind from SW
Wind: SW 9 mph , 15 km/h
Temperature: 73°F , 23°C
Dew Point: 61°F , 16°C
Humidity: 65%
Barometer: 29.87 inHg , 1011.5 hPa
Clouds: Clear
Visibility: 10 miles , 16 km
2024/06/23 23:53 KCRQ 232353Z 23008KT 10SM CLR 23/16 A2987 RMK AO2 SLP112 T02330161 10267 20233 55007
KL18 - Fallbrook, California, USA
Distance from station: NNE 10mi, 17km
Updated: Sun, 23-Jun-2024 4:55pm PDT
Clear
Clear
 Wind from SSW
Wind: SSW 7 mph , 11 km/h
Temperature: 82°F , 28°C
Heat Index: 82°F , 28°C
Dew Point: 59°F , 15°C
Humidity: 45%
Barometer: 29.88 inHg , 1011.9 hPa
Clouds: Clear
Visibility: 10 miles , 16 km
2024/06/23 23:55 KL18 232355Z AUTO 21006KT 10SM CLR 28/15 A2988 RMK AO2
 
KNKX - Miramar Nas/San, California, USA
Distance from station: SSE 26mi, 43km
Updated: Sun, 23-Jun-2024 4:55pm PDT
Clear
Clear
 Wind from WNW
Wind: WNW 7 mph , 11 km/h
Temperature: 82°F , 28°C
Heat Index: 82°F , 28°C
Dew Point: 61°F , 16°C
Humidity: 48%
Barometer: 29.87 inHg , 1011.5 hPa
Clouds: Clear
Visibility: 10 miles , 16 km
2024/06/23 23:55 KNKX 232355Z 30006KT 10SM CLR 28/16 A2987 RMK AO2 SLP110 T02830161 10328 20278 56005
KF70 - Murrieta/Temecul, California, USA
Distance from station: NNE 27mi, 43km
Updated: Sun, 23-Jun-2024 4:55pm PDT
Clear
Clear
 Wind from S
Wind: S 15 mph , 24 km/h
Temperature: 93°F , 34°C
Dew Point: 55°F , 13°C
Humidity: 28%
Barometer: 29.88 inHg , 1011.9 hPa
Clouds: Clear
Visibility: 10 miles , 16 km
2024/06/23 23:55 KF70 232355Z AUTO 19013KT 10SM CLR 34/13 A2988 RMK AO2
 
KRNM - Ramona, California, USA
Distance from station: ESE 27mi, 43km
Updated: Sun, 23-Jun-2024 4:53pm PDT
Clear
Clear
 Wind from W
Wind: W 13 mph , 20 km/h
Temperature: 91°F , 33°C
Dew Point: 55°F , 13°C
Humidity: 30%
Barometer: 29.89 inHg , 1012.2 hPa
Clouds: Clear
Visibility: 10 miles , 16 km
2024/06/23 23:53 KRNM 232353Z 27011KT 10SM CLR 33/13 A2989 RMK AO2 SLP103 T03330128 10361 20333 56010
KMYF - San Diego/Mntgmy, California, USA
Distance from station: SSE 30mi, 48km
Updated: Sun, 23-Jun-2024 4:53pm PDT
Clear
Clear
 Wind from SSW
Wind: SSW 8 mph , 13 km/h
Temperature: 81°F , 27°C
Heat Index: 82°F , 28°C
Dew Point: 61°F , 16°C
Humidity: 51%
Barometer: 29.88 inHg , 1011.9 hPa
Clouds: Clear
Visibility: 10 miles , 16 km
2024/06/23 23:53 KMYF 232353Z 21007KT 10SM CLR 27/16 A2988 RMK AO2 SLP112 T02720161 10317 20267 58006
 
KSAN - San Diego, California, USA
Distance from station: SSE 34mi, 55km
Updated: Sun, 23-Jun-2024 4:51pm PDT
Mostly cloudy
Mostly cloudy
 Wind from WNW
Wind: WNW 7 mph , 11 km/h
Temperature: 79°F , 26°C
Dew Point: 64°F , 18°C
Humidity: 61%
Barometer: 29.88 inHg , 1011.9 hPa
Clouds: Mostly cloudy
Visibility: 10 miles , 16 km
Cloud details: Few Clouds 5000 ft
Mostly cloudy 25000 ft
2024/06/23 23:51 KSAN 232351Z 30006KT 10SM FEW050 BKN250 26/18 A2988 RMK AO2 SLP118 T02560178 10289 20256 57007 $
KSEE - San Diego/Santee, California, USA
Distance from station: SE 34mi, 55km
Updated: Sun, 23-Jun-2024 4:47pm PDT
Clear
Clear
 Wind from WSW
Wind: WSW 12 mph , 19 km/h
Temperature: 88°F , 31°C
Dew Point: 55°F , 13°C
Humidity: 33%
Barometer: 29.87 inHg , 1011.5 hPa
Clouds: Clear
Visibility: 10 miles , 16 km
2024/06/23 23:47 KSEE 232347Z 24010KT 10SM SKC 31/13 A2987
 
KNZY - North Island Nas, California, USA
Distance from station: S 36mi, 58km
Updated: Sun, 23-Jun-2024 4:52pm PDT
Partly cloudy
Partly cloudy
 Wind from WNW
Wind: WNW 7 mph , 11 km/h
Temperature: 75°F , 24°C
Dew Point: 64°F , 18°C
Humidity: 69%
Barometer: 29.86 inHg , 1011.2 hPa
Clouds: Partly cloudy
Visibility: 10 miles , 16 km
Cloud details: Few Clouds 5500 ft
Partly cloudy 12000 ft
Partly cloudy 18000 ft
2024/06/23 23:52 KNZY 232352Z 30006KT 10SM FEW055 SCT120 SCT180 24/18 A2986 RMK AO2 SLP112 T02440183 10289 20233 57007 $
KHMT - Hemet, California, USA
Distance from station: NNE 40mi, 65km
Updated: Sun, 23-Jun-2024 4:55pm PDT
Clear
Clear
 Wind from SW
Wind: SW 16 mph , 26 km/h
Temperature: 97°F , 36°C
Dew Point: 59°F , 15°C
Humidity: 28%
Barometer: 29.88 inHg , 1011.9 hPa
Clouds: Clear
Visibility: 10 miles , 16 km
2024/06/23 23:55 KHMT 232355Z AUTO 22014KT 10SM CLR 36/15 A2988 RMK AO2
 
KSNA - Costa Mesa, California, USA
Distance from station: NW 44mi, 71km
Updated: Sun, 23-Jun-2024 4:53pm PDT
Partly cloudy
Partly cloudy
 Wind from WSW
Wind: WSW 8 mph , 13 km/h
Temperature: 82°F , 28°C
Dew Point: 54°F , 12°C
Humidity: 37%
Barometer: 29.84 inHg , 1010.5 hPa
Clouds: Partly cloudy
Visibility: 10 miles , 16 km
Cloud details: Few Clouds 2500 ft
Few Clouds 4800 ft
Partly cloudy 12000 ft
2024/06/23 23:53 KSNA 232353Z 25007KT 10SM FEW025 FEW048 SCT120 28/12 A2984 RMK AO2 SLP104 TCU DSNT NW FU FEW025 T02830122 10311 20267 56012
KRIV - Riverside/March, California, USA
Distance from station: N 45mi, 73km
Updated: Sun, 23-Jun-2024 4:55pm PDT
Clear
Clear
 Wind from NW
Wind: NW 15 mph , 24 km/h
Temperature: 97°F , 36°C
Dew Point: 34°F , 1°C
Humidity: 11%
Barometer: 29.87 inHg , 1011.5 hPa
Clouds: Clear
Visibility: 10 miles , 16 km
2024/06/23 23:55 KRIV 232355Z AUTO 31013KT 10SM CLR 36/01 A2987 RMK AO2 SLP097 T03610010 10386 20361 56008
 
KNRS - Imperial Beach, California, USA
Distance from station: SSE 46mi, 75km
Updated: Sun, 23-Jun-2024 4:53pm PDT
Clear
Clear
 Wind from W
Wind: W 9 mph , 15 km/h
Barometer: 29.88 inHg , 1011.9 hPa
Clouds: Clear
Visibility: 10 miles , 16 km
2024/06/23 23:53 KNRS 232353Z AUTO 27008KT 10SM CLR A2988 RMK AO2 SLP119 58007 $
KSDM - San Diego/Brown, California, USA
Distance from station: SSE 48mi, 76km
Updated: Sun, 23-Jun-2024 4:53pm PDT
Clear
Clear
 Wind from WNW
Wind: WNW 8 mph , 13 km/h
Temperature: 82°F , 28°C
Heat Index: 82°F , 28°C
Dew Point: 61°F , 16°C
Humidity: 48%
Barometer: 29.88 inHg , 1011.9 hPa
Clouds: Clear
Visibility: 10 miles , 16 km
2024/06/23 23:53 KSDM 232353Z 29007KT 250V310 10SM CLR 28/16 A2988 RMK AO2 SLP111 T02830156 10311 20272 57006 $
 
KAJO - Corona Muni, California, USA
Distance from station: NNW 50mi, 80km
Updated: Sun, 23-Jun-2024 4:56pm PDT
Clear
Clear
 Wind from W
Wind: W 13 mph , 20 km/h, Gust: 22 mph , 35 km/h
Temperature: 95°F , 35°C
Dew Point: 52°F , 11°C
Humidity: 23%
Barometer: 29.83 inHg , 1010.2 hPa
Clouds: Clear
Visibility: 10 miles , 16 km
2024/06/23 23:56 KAJO 232356Z AUTO 27011G19KT 10SM CLR 35/11 A2983 RMK AO2 SLP094 T03500106 10372 20339 58007